sensor_id;sensor_type;location;lat;lon;timestamp;temperature;humidity
15997;DHT22;8103;51.340;12.326;2023-04-06T00:02:19;4.80;86.50
15997;DHT22;8103;51.340;12.326;2023-04-06T00:04:46;4.80;86.60
15997;DHT22;8103;51.340;12.326;2023-04-06T00:07:13;4.90;86.60
15997;DHT22;8103;51.340;12.326;2023-04-06T00:09:40;4.90;86.50
15997;DHT22;8103;51.340;12.326;2023-04-06T00:12:07;4.90;87.20
15997;DHT22;8103;51.340;12.326;2023-04-06T00:14:34;4.90;86.50
15997;DHT22;8103;51.340;12.326;2023-04-06T00:17:00;4.90;86.40
15997;DHT22;8103;51.340;12.326;2023-04-06T00:19:27;4.90;86.20
15997;DHT22;8103;51.340;12.326;2023-04-06T00:21:54;5.00;86.60
15997;DHT22;8103;51.340;12.326;2023-04-06T00:24:21;5.00;87.30
15997;DHT22;8103;51.340;12.326;2023-04-06T00:26:48;5.00;88.20
15997;DHT22;8103;51.340;12.326;2023-04-06T00:29:15;4.90;88.90
15997;DHT22;8103;51.340;12.326;2023-04-06T00:31:42;4.90;89.40
15997;DHT22;8103;51.340;12.326;2023-04-06T00:34:09;4.90;89.80
15997;DHT22;8103;51.340;12.326;2023-04-06T00:36:36;4.90;89.90
15997;DHT22;8103;51.340;12.326;2023-04-06T00:39:03;4.90;89.90
15997;DHT22;8103;51.340;12.326;2023-04-06T00:41:30;5.00;89.90
15997;DHT22;8103;51.340;12.326;2023-04-06T00:43:57;5.00;89.70
15997;DHT22;8103;51.340;12.326;2023-04-06T00:46:24;5.00;89.70
15997;DHT22;8103;51.340;12.326;2023-04-06T00:48:51;5.00;89.60
15997;DHT22;8103;51.340;12.326;2023-04-06T00:51:17;5.00;89.30
15997;DHT22;8103;51.340;12.326;2023-04-06T00:53:44;5.00;89.20
15997;DHT22;8103;51.340;12.326;2023-04-06T00:56:12;5.00;89.40
15997;DHT22;8103;51.340;12.326;2023-04-06T00:58:39;5.00;89.60
15997;DHT22;8103;51.340;12.326;2023-04-06T01:01:07;5.10;89.70
15997;DHT22;8103;51.340;12.326;2023-04-06T01:03:33;5.10;89.80
15997;DHT22;8103;51.340;12.326;2023-04-06T01:06:00;5.10;89.90
15997;DHT22;8103;51.340;12.326;2023-04-06T01:08:27;5.10;90.00
15997;DHT22;8103;51.340;12.326;2023-04-06T01:10:55;5.10;90.00
15997;DHT22;8103;51.340;12.326;2023-04-06T01:13:22;5.10;90.10
15997;DHT22;8103;51.340;12.326;2023-04-06T01:15:49;5.10;90.00
15997;DHT22;8103;51.340;12.326;2023-04-06T01:18:16;5.10;90.00
15997;DHT22;8103;51.340;12.326;2023-04-06T01:20:43;5.10;90.00
15997;DHT22;8103;51.340;12.326;2023-04-06T01:23:09;5.20;90.00
15997;DHT22;8103;51.340;12.326;2023-04-06T01:25:36;5.20;90.10
15997;DHT22;8103;51.340;12.326;2023-04-06T01:28:03;5.20;90.20
15997;DHT22;8103;51.340;12.326;2023-04-06T01:30:30;5.10;90.40
15997;DHT22;8103;51.340;12.326;2023-04-06T01:32:57;5.10;90.60
15997;DHT22;8103;51.340;12.326;2023-04-06T01:35:25;5.10;90.80
15997;DHT22;8103;51.340;12.326;2023-04-06T01:37:53;5.10;91.00
15997;DHT22;8103;51.340;12.326;2023-04-06T01:40:20;5.00;90.90
15997;DHT22;8103;51.340;12.326;2023-04-06T01:42:47;5.00;91.00
15997;DHT22;8103;51.340;12.326;2023-04-06T01:45:14;5.00;90.90
15997;DHT22;8103;51.340;12.326;2023-04-06T01:47:40;5.00;90.90
15997;DHT22;8103;51.340;12.326;2023-04-06T01:50:08;5.00;90.80
15997;DHT22;8103;51.340;12.326;2023-04-06T01:52:35;5.00;90.60
15997;DHT22;8103;51.340;12.326;2023-04-06T01:55:03;5.00;90.60
15997;DHT22;8103;51.340;12.326;2023-04-06T01:57:30;5.00;90.50
15997;DHT22;8103;51.340;12.326;2023-04-06T01:59:57;5.00;90.40
15997;DHT22;8103;51.340;12.326;2023-04-06T02:02:24;5.00;90.30
15997;DHT22;8103;51.340;12.326;2023-04-06T02:04:51;4.90;90.20
15997;DHT22;8103;51.340;12.326;2023-04-06T02:07:18;4.90;90.20
15997;DHT22;8103;51.340;12.326;2023-04-06T02:09:45;4.90;90.30
15997;DHT22;8103;51.340;12.326;2023-04-06T02:12:13;4.90;90.50
15997;DHT22;8103;51.340;12.326;2023-04-06T02:14:39;4.80;90.60
15997;DHT22;8103;51.340;12.326;2023-04-06T02:17:06;4.80;90.60
15997;DHT22;8103;51.340;12.326;2023-04-06T02:19:33;4.80;90.60
15997;DHT22;8103;51.340;12.326;2023-04-06T02:22:00;4.80;90.70
15997;DHT22;8103;51.340;12.326;2023-04-06T02:24:27;4.70;90.70
15997;DHT22;8103;51.340;12.326;2023-04-06T02:26:54;4.70;90.80
15997;DHT22;8103;51.340;12.326;2023-04-06T02:29:22;4.70;90.90
15997;DHT22;8103;51.340;12.326;2023-04-06T02:31:49;4.70;90.90
15997;DHT22;8103;51.340;12.326;2023-04-06T02:34:16;4.60;91.00
15997;DHT22;8103;51.340;12.326;2023-04-06T02:36:45;4.60;91.00
15997;DHT22;8103;51.340;12.326;2023-04-06T02:39:13;4.60;91.10
15997;DHT22;8103;51.340;12.326;2023-04-06T02:41:40;4.60;91.20
15997;DHT22;8103;51.340;12.326;2023-04-06T02:44:08;4.50;91.30
15997;DHT22;8103;51.340;12.326;2023-04-06T02:46:35;4.50;91.40
15997;DHT22;8103;51.340;12.326;2023-04-06T02:49:02;4.50;91.50
15997;DHT22;8103;51.340;12.326;2023-04-06T02:51:29;4.40;91.50
15997;DHT22;8103;51.340;12.326;2023-04-06T02:53:56;4.40;91.70
15997;DHT22;8103;51.340;12.326;2023-04-06T02:56:23;4.40;91.70
15997;DHT22;8103;51.340;12.326;2023-04-06T02:58:49;4.40;91.80
15997;DHT22;8103;51.340;12.326;2023-04-06T03:01:16;4.40;91.90
15997;DHT22;8103;51.340;12.326;2023-04-06T03:03:43;4.40;92.00
15997;DHT22;8103;51.340;12.326;2023-04-06T03:06:10;4.40;92.20
15997;DHT22;8103;51.340;12.326;2023-04-06T03:08:37;4.40;92.40
15997;DHT22;8103;51.340;12.326;2023-04-06T03:11:04;4.40;92.50
15997;DHT22;8103;51.340;12.326;2023-04-06T03:13:31;4.40;92.60
15997;DHT22;8103;51.340;12.326;2023-04-06T03:15:58;4.30;92.70
15997;DHT22;8103;51.340;12.326;2023-04-06T03:18:25;4.30;92.70
15997;DHT22;8103;51.340;12.326;2023-04-06T03:20:52;4.30;92.80
15997;DHT22;8103;51.340;12.326;2023-04-06T03:23:22;4.20;92.80
15997;DHT22;8103;51.340;12.326;2023-04-06T03:25:49;4.20;92.90
15997;DHT22;8103;51.340;12.326;2023-04-06T03:28:15;4.20;93.00
15997;DHT22;8103;51.340;12.326;2023-04-06T03:30:42;4.20;93.10
15997;DHT22;8103;51.340;12.326;2023-04-06T03:33:11;4.10;93.30
15997;DHT22;8103;51.340;12.326;2023-04-06T03:35:38;4.10;93.30
15997;DHT22;8103;51.340;12.326;2023-04-06T03:38:09;4.00;93.40
15997;DHT22;8103;51.340;12.326;2023-04-06T03:40:36;4.00;93.80
15997;DHT22;8103;51.340;12.326;2023-04-06T03:43:04;3.90;94.10
15997;DHT22;8103;51.340;12.326;2023-04-06T03:45:30;3.90;94.10
15997;DHT22;8103;51.340;12.326;2023-04-06T03:47:57;3.80;94.30
15997;DHT22;8103;51.340;12.326;2023-04-06T03:50:24;3.80;94.60
15997;DHT22;8103;51.340;12.326;2023-04-06T03:52:51;3.70;94.60
15997;DHT22;8103;51.340;12.326;2023-04-06T03:55:18;3.60;95.00
15997;DHT22;8103;51.340;12.326;2023-04-06T03:57:45;3.60;95.20
15997;DHT22;8103;51.340;12.326;2023-04-06T04:00:13;3.50;95.30
15997;DHT22;8103;51.340;12.326;2023-04-06T04:02:40;3.50;95.60
15997;DHT22;8103;51.340;12.326;2023-04-06T04:05:07;3.50;95.80
15997;DHT22;8103;51.340;12.326;2023-04-06T04:07:34;3.40;96.10
15997;DHT22;8103;51.340;12.326;2023-04-06T04:10:04;3.40;96.40
15997;DHT22;8103;51.340;12.326;2023-04-06T04:12:31;3.30;96.70
15997;DHT22;8103;51.340;12.326;2023-04-06T04:14:58;3.30;97.00
15997;DHT22;8103;51.340;12.326;2023-04-06T04:17:25;3.20;97.20
15997;DHT22;8103;51.340;12.326;2023-04-06T04:19:52;3.20;97.40
15997;DHT22;8103;51.340;12.326;2023-04-06T04:22:18;3.20;97.70
15997;DHT22;8103;51.340;12.326;2023-04-06T04:24:45;3.20;97.90
15997;DHT22;8103;51.340;12.326;2023-04-06T04:27:12;3.20;98.10
15997;DHT22;8103;51.340;12.326;2023-04-06T04:29:39;3.20;98.40
15997;DHT22;8103;51.340;12.326;2023-04-06T04:32:06;3.10;98.60
15997;DHT22;8103;51.340;12.326;2023-04-06T04:34:33;3.20;98.70
15997;DHT22;8103;51.340;12.326;2023-04-06T04:37:00;3.20;98.90
15997;DHT22;8103;51.340;12.326;2023-04-06T04:39:26;3.20;99.00
15997;DHT22;8103;51.340;12.326;2023-04-06T04:41:53;3.20;99.10
15997;DHT22;8103;51.340;12.326;2023-04-06T04:44:20;3.20;99.10
15997;DHT22;8103;51.340;12.326;2023-04-06T04:46:47;3.10;99.10
15997;DHT22;8103;51.340;12.326;2023-04-06T04:49:13;3.10;99.20
15997;DHT22;8103;51.340;12.326;2023-04-06T04:51:40;3.10;99.40
15997;DHT22;8103;51.340;12.326;2023-04-06T04:54:07;3.10;99.40
15997;DHT22;8103;51.340;12.326;2023-04-06T04:56:34;3.10;99.40
15997;DHT22;8103;51.340;12.326;2023-04-06T04:59:01;3.10;99.50
15997;DHT22;8103;51.340;12.326;2023-04-06T05:01:28;3.10;99.50
15997;DHT22;8103;51.340;12.326;2023-04-06T05:03:55;3.10;99.50
15997;DHT22;8103;51.340;12.326;2023-04-06T05:06:22;3.10;99.60
15997;DHT22;8103;51.340;12.326;2023-04-06T05:08:49;3.20;99.60
15997;DHT22;8103;51.340;12.326;2023-04-06T05:11:15;3.20;99.60
15997;DHT22;8103;51.340;12.326;2023-04-06T05:13:42;3.10;99.40
15997;DHT22;8103;51.340;12.326;2023-04-06T05:16:09;3.10;99.40
15997;DHT22;8103;51.340;12.326;2023-04-06T05:18:36;3.10;99.40
15997;DHT22;8103;51.340;12.326;2023-04-06T05:21:03;3.20;99.30
15997;DHT22;8103;51.340;12.326;2023-04-06T05:23:30;3.20;99.20
15997;DHT22;8103;51.340;12.326;2023-04-06T05:25:57;3.20;99.20
15997;DHT22;8103;51.340;12.326;2023-04-06T05:28:23;3.20;99.10
15997;DHT22;8103;51.340;12.326;2023-04-06T05:34:57;3.20;98.80
15997;DHT22;8103;51.340;12.326;2023-04-06T05:41:24;3.30;98.70
15997;DHT22;8103;51.340;12.326;2023-04-06T05:43:51;3.30;98.50
15997;DHT22;8103;51.340;12.326;2023-04-06T05:46:18;3.30;98.40
15997;DHT22;8103;51.340;12.326;2023-04-06T05:48:45;3.40;98.40
15997;DHT22;8103;51.340;12.326;2023-04-06T05:51:12;3.40;98.40
15997;DHT22;8103;51.340;12.326;2023-04-06T05:53:39;3.50;98.30
15997;DHT22;8103;51.340;12.326;2023-04-06T05:56:06;3.60;98.10
15997;DHT22;8103;51.340;12.326;2023-04-06T05:58:33;3.70;97.80
15997;DHT22;8103;51.340;12.326;2023-04-06T06:01:00;3.90;97.60
15997;DHT22;8103;51.340;12.326;2023-04-06T06:03:28;4.00;97.10
15997;DHT22;8103;51.340;12.326;2023-04-06T06:10:02;4.20;96.20
15997;DHT22;8103;51.340;12.326;2023-04-06T06:12:29;4.30;95.80
15997;DHT22;8103;51.340;12.326;2023-04-06T06:19:02;4.40;95.10
15997;DHT22;8103;51.340;12.326;2023-04-06T06:21:29;4.60;94.50
15997;DHT22;8103;51.340;12.326;2023-04-06T06:23:57;4.60;94.00
15997;DHT22;8103;51.340;12.326;2023-04-06T06:26:24;4.60;93.60
15997;DHT22;8103;51.340;12.326;2023-04-06T06:28:51;4.70;93.30
15997;DHT22;8103;51.340;12.326;2023-04-06T06:31:18;4.70;92.60
15997;DHT22;8103;51.340;12.326;2023-04-06T06:33:47;4.80;91.90
15997;DHT22;8103;51.340;12.326;2023-04-06T06:36:17;5.10;91.20
15997;DHT22;8103;51.340;12.326;2023-04-06T06:38:44;5.20;90.10
15997;DHT22;8103;51.340;12.326;2023-04-06T06:41:11;5.20;89.40
15997;DHT22;8103;51.340;12.326;2023-04-06T06:43:38;5.20;89.00
15997;DHT22;8103;51.340;12.326;2023-04-06T06:46:05;5.30;89.10
15997;DHT22;8103;51.340;12.326;2023-04-06T06:48:32;5.30;88.00
15997;DHT22;8103;51.340;12.326;2023-04-06T06:50:59;5.30;86.30
15997;DHT22;8103;51.340;12.326;2023-04-06T06:53:26;5.30;85.50
15997;DHT22;8103;51.340;12.326;2023-04-06T06:55:53;5.40;85.30
15997;DHT22;8103;51.340;12.326;2023-04-06T07:02:26;5.40;84.90
15997;DHT22;8103;51.340;12.326;2023-04-06T07:04:53;5.50;83.70
15997;DHT22;8103;51.340;12.326;2023-04-06T07:07:20;5.60;83.50
15997;DHT22;8103;51.340;12.326;2023-04-06T07:09:47;5.80;83.30
15997;DHT22;8103;51.340;12.326;2023-04-06T07:12:14;6.00;81.60
15997;DHT22;8103;51.340;12.326;2023-04-06T07:14:42;6.20;79.20
15997;DHT22;8103;51.340;12.326;2023-04-06T07:17:10;6.40;79.20
15997;DHT22;8103;51.340;12.326;2023-04-06T07:19:37;6.50;78.70
15997;DHT22;8103;51.340;12.326;2023-04-06T07:26:10;6.90;74.20
15997;DHT22;8103;51.340;12.326;2023-04-06T07:28:37;7.00;71.40
15997;DHT22;8103;51.340;12.326;2023-04-06T07:31:04;7.00;69.20
15997;DHT22;8103;51.340;12.326;2023-04-06T07:33:31;7.00;69.60
15997;DHT22;8103;51.340;12.326;2023-04-06T07:35:57;7.20;69.30
15997;DHT22;8103;51.340;12.326;2023-04-06T07:38:25;7.20;68.10
15997;DHT22;8103;51.340;12.326;2023-04-06T07:40:52;7.20;67.90
15997;DHT22;8103;51.340;12.326;2023-04-06T07:43:18;7.20;68.60
15997;DHT22;8103;51.340;12.326;2023-04-06T07:45:46;7.30;69.20
15997;DHT22;8103;51.340;12.326;2023-04-06T07:48:12;7.40;68.30
15997;DHT22;8103;51.340;12.326;2023-04-06T07:50:39;7.50;67.50
15997;DHT22;8103;51.340;12.326;2023-04-06T07:53:08;7.50;67.60
15997;DHT22;8103;51.340;12.326;2023-04-06T07:55:35;7.60;67.80
15997;DHT22;8103;51.340;12.326;2023-04-06T07:58:02;7.70;67.40
15997;DHT22;8103;51.340;12.326;2023-04-06T08:00:30;7.80;67.10
15997;DHT22;8103;51.340;12.326;2023-04-06T08:02:56;8.00;66.80
15997;DHT22;8103;51.340;12.326;2023-04-06T08:05:24;8.20;67.30
15997;DHT22;8103;51.340;12.326;2023-04-06T08:07:51;8.50;67.00
15997;DHT22;8103;51.340;12.326;2023-04-06T08:10:18;8.90;65.90
15997;DHT22;8103;51.340;12.326;2023-04-06T08:12:44;9.30;64.50
15997;DHT22;8103;51.340;12.326;2023-04-06T08:15:11;9.70;62.80
15997;DHT22;8103;51.340;12.326;2023-04-06T08:17:38;10.00;61.00
15997;DHT22;8103;51.340;12.326;2023-04-06T08:20:05;10.20;60.10
15997;DHT22;8103;51.340;12.326;2023-04-06T08:22:33;10.10;59.00
15997;DHT22;8103;51.340;12.326;2023-04-06T08:24:59;10.10;58.80
15997;DHT22;8103;51.340;12.326;2023-04-06T08:27:26;10.30;58.90
15997;DHT22;8103;51.340;12.326;2023-04-06T08:29:53;10.40;58.70
15997;DHT22;8103;51.340;12.326;2023-04-06T08:32:20;10.70;58.40
15997;DHT22;8103;51.340;12.326;2023-04-06T08:34:47;11.00;57.20
15997;DHT22;8103;51.340;12.326;2023-04-06T08:37:14;11.10;55.80
15997;DHT22;8103;51.340;12.326;2023-04-06T08:39:41;11.00;55.10
15997;DHT22;8103;51.340;12.326;2023-04-06T08:42:19;10.90;55.10
15997;DHT22;8103;51.340;12.326;2023-04-06T08:44:48;10.60;55.70
15997;DHT22;8103;51.340;12.326;2023-04-06T08:51:25;10.30;56.20
15997;DHT22;8103;51.340;12.326;2023-04-06T08:57:59;11.30;56.00
15997;DHT22;8103;51.340;12.326;2023-04-06T09:00:27;12.50;53.50
15997;DHT22;8103;51.340;12.326;2023-04-06T09:02:57;13.10;51.30
15997;DHT22;8103;51.340;12.326;2023-04-06T09:05:25;13.80;49.60
15997;DHT22;8103;51.340;12.326;2023-04-06T09:07:53;14.30;47.90
15997;DHT22;8103;51.340;12.326;2023-04-06T09:10:20;14.80;46.30
15997;DHT22;8103;51.340;12.326;2023-04-06T09:12:47;15.20;45.40
15997;DHT22;8103;51.340;12.326;2023-04-06T09:19:14;17.30;40.40
15997;DHT22;8103;51.340;12.326;2023-04-06T09:21:40;17.50;39.60
15997;DHT22;8103;51.340;12.326;2023-04-06T09:24:08;17.60;38.80
15997;DHT22;8103;51.340;12.326;2023-04-06T09:30:48;18.40;37.00
15997;DHT22;8103;51.340;12.326;2023-04-06T09:33:24;18.20;35.90
15997;DHT22;8103;51.340;12.326;2023-04-06T09:40:07;18.10;33.50
15997;DHT22;8103;51.340;12.326;2023-04-06T09:42:35;18.50;33.40
15997;DHT22;8103;51.340;12.326;2023-04-06T09:45:03;18.80;32.90
15997;DHT22;8103;51.340;12.326;2023-04-06T09:47:30;19.80;32.60
15997;DHT22;8103;51.340;12.326;2023-04-06T09:50:00;20.70;29.80
15997;DHT22;8103;51.340;12.326;2023-04-06T09:52:33;21.40;28.60
15997;DHT22;8103;51.340;12.326;2023-04-06T09:55:29;22.20;27.90
15997;DHT22;8103;51.340;12.326;2023-04-06T09:58:05;22.00;26.40
15997;DHT22;8103;51.340;12.326;2023-04-06T10:00:45;20.70;27.40
15997;DHT22;8103;51.340;12.326;2023-04-06T10:06:28;21.00;27.60
15997;DHT22;8103;51.340;12.326;2023-04-06T10:09:02;20.50;27.70
15997;DHT22;8103;51.340;12.326;2023-04-06T10:11:32;20.60;27.10
15997;DHT22;8103;51.340;12.326;2023-04-06T10:14:00;20.00;27.50
15997;DHT22;8103;51.340;12.326;2023-04-06T10:16:28;19.00;28.10
15997;DHT22;8103;51.340;12.326;2023-04-06T10:19:05;19.00;27.70
15997;DHT22;8103;51.340;12.326;2023-04-06T10:21:38;19.40;27.30
15997;DHT22;8103;51.340;12.326;2023-04-06T10:24:09;20.10;26.70
15997;DHT22;8103;51.340;12.326;2023-04-06T10:26:37;21.40;25.40
15997;DHT22;8103;51.340;12.326;2023-04-06T10:33:18;24.10;24.00
15997;DHT22;8103;51.340;12.326;2023-04-06T10:35:46;25.60;22.20
15997;DHT22;8103;51.340;12.326;2023-04-06T10:38:13;26.20;21.80
15997;DHT22;8103;51.340;12.326;2023-04-06T10:40:42;26.70;21.00
15997;DHT22;8103;51.340;12.326;2023-04-06T10:45:55;29.20;20.20
15997;DHT22;8103;51.340;12.326;2023-04-06T10:48:23;30.40;19.50
15997;DHT22;8103;51.340;12.326;2023-04-06T10:50:52;30.90;18.70
15997;DHT22;8103;51.340;12.326;2023-04-06T10:53:27;31.20;18.10
15997;DHT22;8103;51.340;12.326;2023-04-06T10:55:55;30.70;17.80
15997;DHT22;8103;51.340;12.326;2023-04-06T10:58:27;29.70;17.70
15997;DHT22;8103;51.340;12.326;2023-04-06T11:00:55;29.30;18.60
15997;DHT22;8103;51.340;12.326;2023-04-06T11:03:26;29.40;18.70
15997;DHT22;8103;51.340;12.326;2023-04-06T11:05:54;28.50;18.60
15997;DHT22;8103;51.340;12.326;2023-04-06T11:08:29;27.60;19.40
15997;DHT22;8103;51.340;12.326;2023-04-06T11:11:08;27.70;19.90
15997;DHT22;8103;51.340;12.326;2023-04-06T11:13:44;28.80;19.60
15997;DHT22;8103;51.340;12.326;2023-04-06T11:21:15;30.90;17.60
15997;DHT22;8103;51.340;12.326;2023-04-06T11:23:43;30.20;17.80
15997;DHT22;8103;51.340;12.326;2023-04-06T11:26:13;30.30;17.90
15997;DHT22;8103;51.340;12.326;2023-04-06T11:28:41;29.80;17.80
15997;DHT22;8103;51.340;12.326;2023-04-06T11:31:10;29.50;18.20
15997;DHT22;8103;51.340;12.326;2023-04-06T11:33:39;29.90;18.10
15997;DHT22;8103;51.340;12.326;2023-04-06T11:36:07;29.80;18.20
15997;DHT22;8103;51.340;12.326;2023-04-06T11:42:34;32.60;17.70
15997;DHT22;8103;51.340;12.326;2023-04-06T11:45:02;34.20;16.90
15997;DHT22;8103;51.340;12.326;2023-04-06T11:47:35;34.80;16.10
15997;DHT22;8103;51.340;12.326;2023-04-06T11:54:10;33.50;16.00
15997;DHT22;8103;51.340;12.326;2023-04-06T11:56:38;33.10;16.40
15997;DHT22;8103;51.340;12.326;2023-04-06T12:03:12;34.20;16.00
15997;DHT22;8103;51.340;12.326;2023-04-06T12:05:39;33.50;16.20
15997;DHT22;8103;51.340;12.326;2023-04-06T12:08:06;33.10;16.20
15997;DHT22;8103;51.340;12.326;2023-04-06T12:10:33;32.90;16.60
15997;DHT22;8103;51.340;12.326;2023-04-06T12:13:00;32.00;16.20
15997;DHT22;8103;51.340;12.326;2023-04-06T12:15:27;31.10;16.90
15997;DHT22;8103;51.340;12.326;2023-04-06T12:17:54;31.00;17.10
15997;DHT22;8103;51.340;12.326;2023-04-06T12:24:32;32.10;16.70
15997;DHT22;8103;51.340;12.326;2023-04-06T12:26:58;33.60;16.30
15997;DHT22;8103;51.340;12.326;2023-04-06T12:29:35;34.20;15.70
15997;DHT22;8103;51.340;12.326;2023-04-06T12:32:02;34.10;15.60
15997;DHT22;8103;51.340;12.326;2023-04-06T12:34:29;33.60;15.80
15997;DHT22;8103;51.340;12.326;2023-04-06T12:36:56;33.20;16.20
15997;DHT22;8103;51.340;12.326;2023-04-06T12:39:23;34.20;15.80
15997;DHT22;8103;51.340;12.326;2023-04-06T12:41:50;35.40;15.80
15997;DHT22;8103;51.340;12.326;2023-04-06T12:48:23;38.40;15.20
15997;DHT22;8103;51.340;12.326;2023-04-06T12:51:04;39.90;14.00
15997;DHT22;8103;51.340;12.326;2023-04-06T12:53:34;39.50;14.00
15997;DHT22;8103;51.340;12.326;2023-04-06T12:56:02;38.80;13.90
15997;DHT22;8103;51.340;12.326;2023-04-06T12:58:37;38.40;14.00
15997;DHT22;8103;51.340;12.326;2023-04-06T13:01:06;37.70;14.20
15997;DHT22;8103;51.340;12.326;2023-04-06T13:03:34;37.80;14.50
15997;DHT22;8103;51.340;12.326;2023-04-06T13:06:01;38.00;14.40
15997;DHT22;8103;51.340;12.326;2023-04-06T13:08:29;38.10;14.30
15997;DHT22;8103;51.340;12.326;2023-04-06T13:10:57;38.40;14.20
15997;DHT22;8103;51.340;12.326;2023-04-06T13:13:27;37.90;13.90
15997;DHT22;8103;51.340;12.326;2023-04-06T13:16:06;36.30;14.20
15997;DHT22;8103;51.340;12.326;2023-04-06T13:18:35;34.50;15.00
15997;DHT22;8103;51.340;12.326;2023-04-06T13:21:05;33.30;15.90
15997;DHT22;8103;51.340;12.326;2023-04-06T13:23:33;32.50;16.30
15997;DHT22;8103;51.340;12.326;2023-04-06T13:26:02;32.90;16.20
15997;DHT22;8103;51.340;12.326;2023-04-06T13:28:33;34.20;16.00
15997;DHT22;8103;51.340;12.326;2023-04-06T13:31:02;35.90;15.40
15997;DHT22;8103;51.340;12.326;2023-04-06T13:33:30;37.50;15.10
15997;DHT22;8103;51.340;12.326;2023-04-06T13:35:58;38.40;14.40
15997;DHT22;8103;51.340;12.326;2023-04-06T13:38:26;38.90;14.20
15997;DHT22;8103;51.340;12.326;2023-04-06T13:40:53;39.40;13.90
15997;DHT22;8103;51.340;12.326;2023-04-06T13:43:20;40.00;13.70
15997;DHT22;8103;51.340;12.326;2023-04-06T13:45:51;39.40;13.60
15997;DHT22;8103;51.340;12.326;2023-04-06T13:48:22;38.10;13.80
15997;DHT22;8103;51.340;12.326;2023-04-06T13:50:49;36.50;14.40
15997;DHT22;8103;51.340;12.326;2023-04-06T13:53:16;35.40;14.80
15997;DHT22;8103;51.340;12.326;2023-04-06T13:55:53;35.40;15.60
15997;DHT22;8103;51.340;12.326;2023-04-06T13:58:20;36.20;15.00
15997;DHT22;8103;51.340;12.326;2023-04-06T14:00:51;37.00;14.80
15997;DHT22;8103;51.340;12.326;2023-04-06T14:03:20;37.80;14.40
15997;DHT22;8103;51.340;12.326;2023-04-06T14:05:51;38.20;14.30
15997;DHT22;8103;51.340;12.326;2023-04-06T14:08:19;38.70;14.20
15997;DHT22;8103;51.340;12.326;2023-04-06T14:10:45;37.90;14.10
15997;DHT22;8103;51.340;12.326;2023-04-06T14:13:12;37.30;14.30
15997;DHT22;8103;51.340;12.326;2023-04-06T14:15:39;36.70;14.60
15997;DHT22;8103;51.340;12.326;2023-04-06T14:18:08;36.10;14.60
15997;DHT22;8103;51.340;12.326;2023-04-06T14:20:35;34.80;14.90
15997;DHT22;8103;51.340;12.326;2023-04-06T14:23:02;32.60;15.50
15997;DHT22;8103;51.340;12.326;2023-04-06T14:25:29;29.30;17.00
15997;DHT22;8103;51.340;12.326;2023-04-06T14:27:58;26.20;18.70
15997;DHT22;8103;51.340;12.326;2023-04-06T14:30:25;23.60;20.70
15997;DHT22;8103;51.340;12.326;2023-04-06T14:32:52;21.40;23.00
15997;DHT22;8103;51.340;12.326;2023-04-06T14:35:19;19.70;24.60
15997;DHT22;8103;51.340;12.326;2023-04-06T14:37:46;18.40;26.00
15997;DHT22;8103;51.340;12.326;2023-04-06T14:40:13;17.60;26.80
15997;DHT22;8103;51.340;12.326;2023-04-06T14:42:40;16.90;27.80
15997;DHT22;8103;51.340;12.326;2023-04-06T14:45:08;16.50;28.30
15997;DHT22;8103;51.340;12.326;2023-04-06T14:50:02;15.70;29.10
15997;DHT22;8103;51.340;12.326;2023-04-06T14:52:30;15.60;29.80
15997;DHT22;8103;51.340;12.326;2023-04-06T14:54:58;15.30;30.20
15997;DHT22;8103;51.340;12.326;2023-04-06T14:57:25;15.10;30.80
15997;DHT22;8103;51.340;12.326;2023-04-06T14:59:53;14.90;31.40
15997;DHT22;8103;51.340;12.326;2023-04-06T15:02:21;14.70;31.70
15997;DHT22;8103;51.340;12.326;2023-04-06T15:04:48;14.60;32.30
15997;DHT22;8103;51.340;12.326;2023-04-06T15:07:14;14.50;32.20
15997;DHT22;8103;51.340;12.326;2023-04-06T15:09:41;14.50;32.40
15997;DHT22;8103;51.340;12.326;2023-04-06T15:12:08;14.50;32.40
15997;DHT22;8103;51.340;12.326;2023-04-06T15:14:36;14.60;32.30
15997;DHT22;8103;51.340;12.326;2023-04-06T15:17:02;14.60;32.20
15997;DHT22;8103;51.340;12.326;2023-04-06T15:23:35;14.50;33.00
15997;DHT22;8103;51.340;12.326;2023-04-06T15:26:02;14.50;33.00
15997;DHT22;8103;51.340;12.326;2023-04-06T15:28:30;14.40;33.00
15997;DHT22;8103;51.340;12.326;2023-04-06T15:30:57;14.40;32.70
15997;DHT22;8103;51.340;12.326;2023-04-06T15:33:24;14.30;32.60
15997;DHT22;8103;51.340;12.326;2023-04-06T15:35:51;14.20;32.50
15997;DHT22;8103;51.340;12.326;2023-04-06T15:38:18;14.10;32.60
15997;DHT22;8103;51.340;12.326;2023-04-06T15:40:47;14.00;33.10
15997;DHT22;8103;51.340;12.326;2023-04-06T15:43:18;13.90;33.40
15997;DHT22;8103;51.340;12.326;2023-04-06T15:45:45;13.80;33.60
15997;DHT22;8103;51.340;12.326;2023-04-06T15:48:15;13.70;34.00
15997;DHT22;8103;51.340;12.326;2023-04-06T15:50:42;13.70;34.30
15997;DHT22;8103;51.340;12.326;2023-04-06T15:53:11;13.70;34.30
15997;DHT22;8103;51.340;12.326;2023-04-06T15:55:38;13.70;34.10
15997;DHT22;8103;51.340;12.326;2023-04-06T15:58:05;13.60;34.50
15997;DHT22;8103;51.340;12.326;2023-04-06T16:00:33;13.40;34.60
15997;DHT22;8103;51.340;12.326;2023-04-06T16:03:00;13.30;34.80
15997;DHT22;8103;51.340;12.326;2023-04-06T16:05:28;13.30;35.30
15997;DHT22;8103;51.340;12.326;2023-04-06T16:08:00;13.40;35.70
15997;DHT22;8103;51.340;12.326;2023-04-06T16:10:27;13.40;35.80
15997;DHT22;8103;51.340;12.326;2023-04-06T16:12:53;13.40;35.60
15997;DHT22;8103;51.340;12.326;2023-04-06T16:15:21;13.30;36.20
15997;DHT22;8103;51.340;12.326;2023-04-06T16:17:48;13.20;36.00
15997;DHT22;8103;51.340;12.326;2023-04-06T16:20:16;13.20;36.20
15997;DHT22;8103;51.340;12.326;2023-04-06T16:22:43;13.10;35.60
15997;DHT22;8103;51.340;12.326;2023-04-06T16:25:09;13.00;35.40
15997;DHT22;8103;51.340;12.326;2023-04-06T16:27:37;12.80;35.70
15997;DHT22;8103;51.340;12.326;2023-04-06T16:30:05;12.70;36.00
15997;DHT22;8103;51.340;12.326;2023-04-06T16:32:33;12.70;36.20
15997;DHT22;8103;51.340;12.326;2023-04-06T16:35:02;12.60;36.20
15997;DHT22;8103;51.340;12.326;2023-04-06T16:37:30;12.60;36.40
15997;DHT22;8103;51.340;12.326;2023-04-06T16:39:57;12.50;36.40
15997;DHT22;8103;51.340;12.326;2023-04-06T16:42:26;12.30;36.50
15997;DHT22;8103;51.340;12.326;2023-04-06T16:44:54;12.30;36.80
15997;DHT22;8103;51.340;12.326;2023-04-06T16:47:21;12.30;37.40
15997;DHT22;8103;51.340;12.326;2023-04-06T16:49:49;12.30;38.00
15997;DHT22;8103;51.340;12.326;2023-04-06T16:52:16;12.30;38.60
15997;DHT22;8103;51.340;12.326;2023-04-06T16:58:42;12.20;39.00
15997;DHT22;8103;51.340;12.326;2023-04-06T17:01:22;12.10;39.20
15997;DHT22;8103;51.340;12.326;2023-04-06T17:03:52;12.00;39.60
15997;DHT22;8103;51.340;12.326;2023-04-06T17:10:26;11.90;40.30
15997;DHT22;8103;51.340;12.326;2023-04-06T17:12:58;11.80;40.80
15997;DHT22;8103;51.340;12.326;2023-04-06T17:19:25;11.70;40.60
15997;DHT22;8103;51.340;12.326;2023-04-06T17:21:52;11.60;40.80